Anderson Dam, Idaho
Current Conditions -  °F | °C
As of 4:58 AM on Saturday 01 Nov 2014 (Local Time) from KMUO Reporting Station
Clear Clear  
Wind Chill: 37°   Ceiling: Unl
Heat Index: 40°   Visibility: 10mi
Dew Point: 39°   Wind: 5mph
Humidity: 94%   Direction: 260°W
Pressure: 29.57"   Gusts: NA
Location:  43.2609°N, 115.781°W
Report Text: KMUO 011058Z AUTO 26004KT 10SM CLR 05/04 A2957 RMK AO2 SLP004 T00460037
Loading
Personal Weather Stations






























Interactive Weather Map
Tropical Storm Tracking
New forecast layout! Learn more

10-Day Weather Forecast

Advertisements
Track Severe Weather on mobile